sensor_id;sensor_type;location;lat;lon;timestamp;temperature;humidity
68378;DHT22;55322;48.146;11.516;2022-10-23T00:01:16;10.48;93.97
68378;DHT22;55322;48.146;11.516;2022-10-23T00:03:43;10.41;94.15
68378;DHT22;55322;48.146;11.516;2022-10-23T00:06:09;10.39;94.03
68378;DHT22;55322;48.146;11.516;2022-10-23T00:08:35;10.45;94.18
68378;DHT22;55322;48.146;11.516;2022-10-23T00:11:05;10.44;94.15
68378;DHT22;55322;48.146;11.516;2022-10-23T00:13:30;10.46;94.03
68378;DHT22;55322;48.146;11.516;2022-10-23T00:15:56;10.39;93.94
68378;DHT22;55322;48.146;11.516;2022-10-23T00:18:21;10.39;94.20
68378;DHT22;55322;48.146;11.516;2022-10-23T00:20:46;10.32;94.14
68378;DHT22;55322;48.146;11.516;2022-10-23T00:23:12;10.18;93.88
68378;DHT22;55322;48.146;11.516;2022-10-23T00:25:37;10.12;93.99
68378;DHT22;55322;48.146;11.516;2022-10-23T00:28:03;10.02;93.86
68378;DHT22;55322;48.146;11.516;2022-10-23T00:30:28;9.95;95.17
68378;DHT22;55322;48.146;11.516;2022-10-23T00:32:53;9.99;95.21
68378;DHT22;55322;48.146;11.516;2022-10-23T00:35:19;10.02;95.40
68378;DHT22;55322;48.146;11.516;2022-10-23T00:37:44;10.08;94.96
68378;DHT22;55322;48.146;11.516;2022-10-23T00:40:10;10.02;94.65
68378;DHT22;55322;48.146;11.516;2022-10-23T00:42:36;9.91;95.04
68378;DHT22;55322;48.146;11.516;2022-10-23T00:45:16;9.85;95.08
68378;DHT22;55322;48.146;11.516;2022-10-23T00:47:43;9.71;96.24
68378;DHT22;55322;48.146;11.516;2022-10-23T00:50:08;9.69;96.02
68378;DHT22;55322;48.146;11.516;2022-10-23T00:52:36;9.51;96.59
68378;DHT22;55322;48.146;11.516;2022-10-23T00:55:04;9.51;96.71
68378;DHT22;55322;48.146;11.516;2022-10-23T00:57:30;9.43;96.83
68378;DHT22;55322;48.146;11.516;2022-10-23T00:59:55;9.37;96.99
68378;DHT22;55322;48.146;11.516;2022-10-23T01:02:21;9.34;96.58
68378;DHT22;55322;48.146;11.516;2022-10-23T01:04:46;9.78;95.92
68378;DHT22;55322;48.146;11.516;2022-10-23T01:09:44;9.88;95.57
68378;DHT22;55322;48.146;11.516;2022-10-23T01:12:30;9.83;95.32
68378;DHT22;55322;48.146;11.516;2022-10-23T01:18:11;9.94;94.64
68378;DHT22;55322;48.146;11.516;2022-10-23T01:20:45;9.95;94.57
68378;DHT22;55322;48.146;11.516;2022-10-23T01:23:41;10.04;94.03
68378;DHT22;55322;48.146;11.516;2022-10-23T01:26:34;10.01;93.73
68378;DHT22;55322;48.146;11.516;2022-10-23T01:29:06;10.01;93.71
68378;DHT22;55322;48.146;11.516;2022-10-23T01:31:42;9.98;93.72
68378;DHT22;55322;48.146;11.516;2022-10-23T01:34:15;9.88;93.72
68378;DHT22;55322;48.146;11.516;2022-10-23T01:36:46;9.85;93.90
68378;DHT22;55322;48.146;11.516;2022-10-23T01:39:29;9.81;94.11
68378;DHT22;55322;48.146;11.516;2022-10-23T01:42:04;9.80;94.25
68378;DHT22;55322;48.146;11.516;2022-10-23T01:44:49;9.83;93.77
68378;DHT22;55322;48.146;11.516;2022-10-23T01:47:17;9.83;93.81
68378;DHT22;55322;48.146;11.516;2022-10-23T01:49:45;9.84;93.51
68378;DHT22;55322;48.146;11.516;2022-10-23T01:52:13;9.69;94.18
68378;DHT22;55322;48.146;11.516;2022-10-23T01:54:41;9.70;94.05
68378;DHT22;55322;48.146;11.516;2022-10-23T01:57:12;9.69;93.87
68378;DHT22;55322;48.146;11.516;2022-10-23T02:00:04;9.70;93.74
68378;DHT22;55322;48.146;11.516;2022-10-23T02:02:29;9.53;94.76
68378;DHT22;55322;48.146;11.516;2022-10-23T02:04:59;9.43;94.71
68378;DHT22;55322;48.146;11.516;2022-10-23T02:07:26;9.50;94.61
68378;DHT22;55322;48.146;11.516;2022-10-23T02:09:51;9.46;94.74
68378;DHT22;55322;48.146;11.516;2022-10-23T02:12:32;9.46;94.34
68378;DHT22;55322;48.146;11.516;2022-10-23T02:15:12;9.32;94.33
68378;DHT22;55322;48.146;11.516;2022-10-23T02:22:41;9.12;95.18
68378;DHT22;55322;48.146;11.516;2022-10-23T02:25:15;9.05;95.01
68378;DHT22;55322;48.146;11.516;2022-10-23T02:27:47;9.10;95.16
68378;DHT22;55322;48.146;11.516;2022-10-23T02:30:16;9.22;95.13
68378;DHT22;55322;48.146;11.516;2022-10-23T02:32:47;9.32;94.82
68378;DHT22;55322;48.146;11.516;2022-10-23T02:35:14;9.36;94.49
68378;DHT22;55322;48.146;11.516;2022-10-23T02:37:39;9.47;94.01
68378;DHT22;55322;48.146;11.516;2022-10-23T02:40:07;9.51;93.80
68378;DHT22;55322;48.146;11.516;2022-10-23T02:43:13;9.55;93.42
68378;DHT22;55322;48.146;11.516;2022-10-23T02:45:37;9.58;93.17
68378;DHT22;55322;48.146;11.516;2022-10-23T02:48:11;9.53;93.17
68378;DHT22;55322;48.146;11.516;2022-10-23T02:54:07;9.42;93.68
68378;DHT22;55322;48.146;11.516;2022-10-23T02:59:26;9.30;93.74
68378;DHT22;55322;48.146;11.516;2022-10-23T03:02:01;9.24;94.00
68378;DHT22;55322;48.146;11.516;2022-10-23T03:04:30;9.10;94.55
68378;DHT22;55322;48.146;11.516;2022-10-23T03:06:57;9.10;95.22
68378;DHT22;55322;48.146;11.516;2022-10-23T03:09:25;8.96;95.73
68378;DHT22;55322;48.146;11.516;2022-10-23T03:11:50;8.99;95.59
68378;DHT22;55322;48.146;11.516;2022-10-23T03:14:16;9.00;95.29
68378;DHT22;55322;48.146;11.516;2022-10-23T03:16:41;8.90;95.86
68378;DHT22;55322;48.146;11.516;2022-10-23T03:19:06;8.85;95.69
68378;DHT22;55322;48.146;11.516;2022-10-23T03:21:31;8.80;95.18
68378;DHT22;55322;48.146;11.516;2022-10-23T03:23:57;8.88;95.09
68378;DHT22;55322;48.146;11.516;2022-10-23T03:26:22;8.83;95.18
68378;DHT22;55322;48.146;11.516;2022-10-23T03:28:47;8.82;95.53
68378;DHT22;55322;48.146;11.516;2022-10-23T03:31:13;8.89;95.35
68378;DHT22;55322;48.146;11.516;2022-10-23T03:33:38;9.08;94.47
68378;DHT22;55322;48.146;11.516;2022-10-23T03:36:04;9.12;94.34
68378;DHT22;55322;48.146;11.516;2022-10-23T03:38:30;9.05;94.40
68378;DHT22;55322;48.146;11.516;2022-10-23T03:40:55;8.98;94.47
68378;DHT22;55322;48.146;11.516;2022-10-23T03:43:20;8.86;94.81
68378;DHT22;55322;48.146;11.516;2022-10-23T03:45:46;8.79;95.32
68378;DHT22;55322;48.146;11.516;2022-10-23T03:48:11;8.68;96.07
68378;DHT22;55322;48.146;11.516;2022-10-23T03:50:36;8.57;96.13
68378;DHT22;55322;48.146;11.516;2022-10-23T03:53:02;8.48;96.68
68378;DHT22;55322;48.146;11.516;2022-10-23T03:55:27;8.78;95.32
68378;DHT22;55322;48.146;11.516;2022-10-23T03:57:53;8.88;94.67
68378;DHT22;55322;48.146;11.516;2022-10-23T04:00:19;8.98;93.77
68378;DHT22;55322;48.146;11.516;2022-10-23T04:02:45;8.93;94.19
68378;DHT22;55322;48.146;11.516;2022-10-23T04:05:11;8.83;93.97
68378;DHT22;55322;48.146;11.516;2022-10-23T04:07:36;8.64;95.24
68378;DHT22;55322;48.146;11.516;2022-10-23T04:10:03;8.67;94.82
68378;DHT22;55322;48.146;11.516;2022-10-23T04:12:28;8.58;95.97
68378;DHT22;55322;48.146;11.516;2022-10-23T04:14:53;8.54;95.79
68378;DHT22;55322;48.146;11.516;2022-10-23T04:17:19;8.37;96.30
68378;DHT22;55322;48.146;11.516;2022-10-23T04:19:44;8.25;96.45
68378;DHT22;55322;48.146;11.516;2022-10-23T04:22:09;8.17;96.81
68378;DHT22;55322;48.146;11.516;2022-10-23T04:24:34;8.18;96.84
68378;DHT22;55322;48.146;11.516;2022-10-23T04:27:00;8.25;97.10
68378;DHT22;55322;48.146;11.516;2022-10-23T04:29:25;8.28;97.31
68378;DHT22;55322;48.146;11.516;2022-10-23T04:31:52;8.28;97.33
68378;DHT22;55322;48.146;11.516;2022-10-23T04:34:17;8.27;97.36
68378;DHT22;55322;48.146;11.516;2022-10-23T04:36:43;8.30;97.29
68378;DHT22;55322;48.146;11.516;2022-10-23T04:39:09;8.27;96.82
68378;DHT22;55322;48.146;11.516;2022-10-23T04:41:34;8.23;96.63
68378;DHT22;55322;48.146;11.516;2022-10-23T04:44:00;8.20;97.24
68378;DHT22;55322;48.146;11.516;2022-10-23T04:46:25;8.21;97.37
68378;DHT22;55322;48.146;11.516;2022-10-23T04:48:50;8.24;97.40
68378;DHT22;55322;48.146;11.516;2022-10-23T04:51:16;8.21;96.99
68378;DHT22;55322;48.146;11.516;2022-10-23T04:53:41;8.27;97.13
68378;DHT22;55322;48.146;11.516;2022-10-23T04:56:06;8.25;96.78
68378;DHT22;55322;48.146;11.516;2022-10-23T04:58:32;8.38;96.33
68378;DHT22;55322;48.146;11.516;2022-10-23T05:00:57;8.73;93.89
68378;DHT22;55322;48.146;11.516;2022-10-23T05:03:24;8.89;92.90
68378;DHT22;55322;48.146;11.516;2022-10-23T05:05:52;8.89;92.70
68378;DHT22;55322;48.146;11.516;2022-10-23T05:08:19;8.93;92.49
68378;DHT22;55322;48.146;11.516;2022-10-23T05:10:46;8.95;92.28
68378;DHT22;55322;48.146;11.516;2022-10-23T05:13:11;8.93;92.72
68378;DHT22;55322;48.146;11.516;2022-10-23T05:15:37;8.86;92.58
68378;DHT22;55322;48.146;11.516;2022-10-23T05:18:20;8.88;92.53
68378;DHT22;55322;48.146;11.516;2022-10-23T05:20:49;8.98;92.07
68378;DHT22;55322;48.146;11.516;2022-10-23T05:23:17;9.06;91.55
68378;DHT22;55322;48.146;11.516;2022-10-23T05:25:43;9.10;91.00
68378;DHT22;55322;48.146;11.516;2022-10-23T05:28:09;9.10;91.23
68378;DHT22;55322;48.146;11.516;2022-10-23T05:30:34;9.10;91.03
68378;DHT22;55322;48.146;11.516;2022-10-23T05:33:01;9.03;91.41
68378;DHT22;55322;48.146;11.516;2022-10-23T05:35:27;9.13;90.70
68378;DHT22;55322;48.146;11.516;2022-10-23T05:37:54;9.15;90.24
68378;DHT22;55322;48.146;11.516;2022-10-23T05:40:20;9.16;90.18
68378;DHT22;55322;48.146;11.516;2022-10-23T05:42:46;9.22;89.82
68378;DHT22;55322;48.146;11.516;2022-10-23T05:45:11;9.22;89.79
68378;DHT22;55322;48.146;11.516;2022-10-23T05:47:36;9.19;89.94
68378;DHT22;55322;48.146;11.516;2022-10-23T05:50:02;9.20;89.81
68378;DHT22;55322;48.146;11.516;2022-10-23T05:52:27;9.24;89.80
68378;DHT22;55322;48.146;11.516;2022-10-23T05:54:53;9.22;89.74
68378;DHT22;55322;48.146;11.516;2022-10-23T05:57:18;9.18;89.90
68378;DHT22;55322;48.146;11.516;2022-10-23T05:59:44;9.24;89.78
68378;DHT22;55322;48.146;11.516;2022-10-23T06:02:09;9.27;89.39
68378;DHT22;55322;48.146;11.516;2022-10-23T06:04:34;9.26;89.58
68378;DHT22;55322;48.146;11.516;2022-10-23T06:07:01;9.27;89.57
68378;DHT22;55322;48.146;11.516;2022-10-23T06:09:26;9.22;90.48
68378;DHT22;55322;48.146;11.516;2022-10-23T06:11:51;9.15;91.07
68378;DHT22;55322;48.146;11.516;2022-10-23T06:14:17;9.20;90.39
68378;DHT22;55322;48.146;11.516;2022-10-23T06:16:42;9.20;89.77
68378;DHT22;55322;48.146;11.516;2022-10-23T06:19:11;9.22;90.48
68378;DHT22;55322;48.146;11.516;2022-10-23T06:21:38;9.19;90.60
68378;DHT22;55322;48.146;11.516;2022-10-23T06:24:07;9.02;92.03
68378;DHT22;55322;48.146;11.516;2022-10-23T06:26:32;8.88;93.50
68378;DHT22;55322;48.146;11.516;2022-10-23T06:28:58;8.82;92.83
68378;DHT22;55322;48.146;11.516;2022-10-23T06:31:23;8.83;92.73
68378;DHT22;55322;48.146;11.516;2022-10-23T06:33:52;8.89;93.48
68378;DHT22;55322;48.146;11.516;2022-10-23T06:36:18;8.90;93.54
68378;DHT22;55322;48.146;11.516;2022-10-23T06:38:43;8.96;92.66
68378;DHT22;55322;48.146;11.516;2022-10-23T06:41:13;9.20;91.45
68378;DHT22;55322;48.146;11.516;2022-10-23T06:43:40;9.24;91.70
68378;DHT22;55322;48.146;11.516;2022-10-23T06:46:05;9.34;90.95
68378;DHT22;55322;48.146;11.516;2022-10-23T06:48:31;9.33;92.38
68378;DHT22;55322;48.146;11.516;2022-10-23T06:50:57;9.30;92.24
68378;DHT22;55322;48.146;11.516;2022-10-23T06:53:22;9.36;91.83
68378;DHT22;55322;48.146;11.516;2022-10-23T06:55:52;9.50;90.91
68378;DHT22;55322;48.146;11.516;2022-10-23T06:58:22;9.69;89.77
68378;DHT22;55322;48.146;11.516;2022-10-23T07:00:47;9.73;90.55
68378;DHT22;55322;48.146;11.516;2022-10-23T07:03:13;10.46;88.98
68378;DHT22;55322;48.146;11.516;2022-10-23T07:05:38;11.19;83.42
68378;DHT22;55322;48.146;11.516;2022-10-23T07:08:05;11.81;80.56
68378;DHT22;55322;48.146;11.516;2022-10-23T07:10:30;12.25;79.26
68378;DHT22;55322;48.146;11.516;2022-10-23T07:12:57;12.67;76.87
68378;DHT22;55322;48.146;11.516;2022-10-23T07:15:25;13.17;74.94
68378;DHT22;55322;48.146;11.516;2022-10-23T07:17:51;13.72;74.56
68378;DHT22;55322;48.146;11.516;2022-10-23T07:20:17;13.14;73.91
68378;DHT22;55322;48.146;11.516;2022-10-23T07:22:42;13.48;73.96
68378;DHT22;55322;48.146;11.516;2022-10-23T07:25:07;13.79;74.56
68378;DHT22;55322;48.146;11.516;2022-10-23T07:27:35;14.15;72.33
68378;DHT22;55322;48.146;11.516;2022-10-23T07:30:01;14.34;71.44
68378;DHT22;55322;48.146;11.516;2022-10-23T07:32:27;13.98;71.88
68378;DHT22;55322;48.146;11.516;2022-10-23T07:34:52;13.57;72.77
68378;DHT22;55322;48.146;11.516;2022-10-23T07:37:18;13.77;73.28
68378;DHT22;55322;48.146;11.516;2022-10-23T07:39:43;14.09;72.73
68378;DHT22;55322;48.146;11.516;2022-10-23T07:42:08;14.39;72.30
68378;DHT22;55322;48.146;11.516;2022-10-23T07:44:34;14.43;73.18
68378;DHT22;55322;48.146;11.516;2022-10-23T07:46:59;14.93;69.40
68378;DHT22;55322;48.146;11.516;2022-10-23T07:49:24;14.95;68.59
68378;DHT22;55322;48.146;11.516;2022-10-23T07:51:50;14.80;68.70
68378;DHT22;55322;48.146;11.516;2022-10-23T07:54:17;15.28;68.95
68378;DHT22;55322;48.146;11.516;2022-10-23T07:56:42;15.48;68.33
68378;DHT22;55322;48.146;11.516;2022-10-23T07:59:11;15.61;66.42
68378;DHT22;55322;48.146;11.516;2022-10-23T08:01:37;16.16;65.27
68378;DHT22;55322;48.146;11.516;2022-10-23T08:04:03;15.81;65.12
68378;DHT22;55322;48.146;11.516;2022-10-23T08:06:29;15.61;65.44
68378;DHT22;55322;48.146;11.516;2022-10-23T08:08:54;15.98;65.66
68378;DHT22;55322;48.146;11.516;2022-10-23T08:11:22;15.75;64.72
68378;DHT22;55322;48.146;11.516;2022-10-23T08:13:52;15.86;64.86
68378;DHT22;55322;48.146;11.516;2022-10-23T08:16:17;16.67;64.25
68378;DHT22;55322;48.146;11.516;2022-10-23T08:18:42;16.08;63.17
68378;DHT22;55322;48.146;11.516;2022-10-23T08:21:09;16.17;63.05
68378;DHT22;55322;48.146;11.516;2022-10-23T08:23:35;16.64;62.55
68378;DHT22;55322;48.146;11.516;2022-10-23T08:26:02;16.53;62.88
68378;DHT22;55322;48.146;11.516;2022-10-23T08:28:29;16.29;62.81
68378;DHT22;55322;48.146;11.516;2022-10-23T08:30:54;16.41;63.69
68378;DHT22;55322;48.146;11.516;2022-10-23T08:33:20;17.11;61.77
68378;DHT22;55322;48.146;11.516;2022-10-23T08:35:46;17.29;60.90
68378;DHT22;55322;48.146;11.516;2022-10-23T08:38:11;18.10;60.53
68378;DHT22;55322;48.146;11.516;2022-10-23T08:40:37;18.74;59.19
68378;DHT22;55322;48.146;11.516;2022-10-23T08:43:12;18.01;57.62
68378;DHT22;55322;48.146;11.516;2022-10-23T08:45:58;17.86;59.80
68378;DHT22;55322;48.146;11.516;2022-10-23T08:48:32;16.60;61.51
68378;DHT22;55322;48.146;11.516;2022-10-23T08:51:24;17.18;63.46
68378;DHT22;55322;48.146;11.516;2022-10-23T08:56:40;17.99;59.45
68378;DHT22;55322;48.146;11.516;2022-10-23T08:59:27;17.69;59.39
68378;DHT22;55322;48.146;11.516;2022-10-23T09:01:59;17.82;59.51
68378;DHT22;55322;48.146;11.516;2022-10-23T09:04:25;18.14;58.90
68378;DHT22;55322;48.146;11.516;2022-10-23T09:07:08;18.27;57.35
68378;DHT22;55322;48.146;11.516;2022-10-23T09:09:59;18.29;58.85
68378;DHT22;55322;48.146;11.516;2022-10-23T09:12:28;18.58;56.46
68378;DHT22;55322;48.146;11.516;2022-10-23T09:17:39;18.30;57.88
68378;DHT22;55322;48.146;11.516;2022-10-23T09:20:20;17.93;58.37
68378;DHT22;55322;48.146;11.516;2022-10-23T09:22:54;17.90;58.44
68378;DHT22;55322;48.146;11.516;2022-10-23T09:25:25;19.05;56.22
68378;DHT22;55322;48.146;11.516;2022-10-23T09:27:53;18.95;54.89
68378;DHT22;55322;48.146;11.516;2022-10-23T09:33:11;18.68;57.11
68378;DHT22;55322;48.146;11.516;2022-10-23T09:35:37;18.92;56.95
68378;DHT22;55322;48.146;11.516;2022-10-23T09:38:03;19.69;53.63
68378;DHT22;55322;48.146;11.516;2022-10-23T09:40:38;19.73;53.64
68378;DHT22;55322;48.146;11.516;2022-10-23T09:43:17;20.44;53.10
68378;DHT22;55322;48.146;11.516;2022-10-23T09:45:43;20.34;51.62
68378;DHT22;55322;48.146;11.516;2022-10-23T09:48:14;20.95;52.98
68378;DHT22;55322;48.146;11.516;2022-10-23T09:50:52;21.59;50.08
68378;DHT22;55322;48.146;11.516;2022-10-23T09:53:29;21.40;50.61
68378;DHT22;55322;48.146;11.516;2022-10-23T09:55:58;21.00;50.30
68378;DHT22;55322;48.146;11.516;2022-10-23T09:58:41;20.94;51.38
68378;DHT22;55322;48.146;11.516;2022-10-23T10:01:22;21.74;51.62
68378;DHT22;55322;48.146;11.516;2022-10-23T10:03:49;21.67;51.70
68378;DHT22;55322;48.146;11.516;2022-10-23T10:06:31;22.58;48.16
68378;DHT22;55322;48.146;11.516;2022-10-23T10:09:04;21.81;49.01
68378;DHT22;55322;48.146;11.516;2022-10-23T10:11:45;22.48;49.27
68378;DHT22;55322;48.146;11.516;2022-10-23T10:17:00;22.24;50.44
68378;DHT22;55322;48.146;11.516;2022-10-23T10:19:53;22.84;49.85
68378;DHT22;55322;48.146;11.516;2022-10-23T10:22:27;23.10;48.06
68378;DHT22;55322;48.146;11.516;2022-10-23T10:25:08;22.82;49.48
68378;DHT22;55322;48.146;11.516;2022-10-23T10:35:25;23.77;45.62
68378;DHT22;55322;48.146;11.516;2022-10-23T10:51:46;23.34;47.72
68378;DHT22;55322;48.146;11.516;2022-10-23T10:55:17;23.78;48.48
68378;DHT22;55322;48.146;11.516;2022-10-23T10:57:31;23.00;48.19
68378;DHT22;55322;48.146;11.516;2022-10-23T11:00:02;23.17;49.31
68378;DHT22;55322;48.146;11.516;2022-10-23T11:02:34;22.99;48.23
68378;DHT22;55322;48.146;11.516;2022-10-23T11:07:36;22.79;50.37
68378;DHT22;55322;48.146;11.516;2022-10-23T11:10:14;22.66;51.05
68378;DHT22;55322;48.146;11.516;2022-10-23T11:12:42;22.58;49.91
68378;DHT22;55322;48.146;11.516;2022-10-23T11:15:17;22.76;50.26
68378;DHT22;55322;48.146;11.516;2022-10-23T11:17:47;22.66;50.16
68378;DHT22;55322;48.146;11.516;2022-10-23T11:29:08;22.34;49.63
68378;DHT22;55322;48.146;11.516;2022-10-23T11:34:12;22.42;54.05
68378;DHT22;55322;48.146;11.516;2022-10-23T11:41:59;21.67;54.61
68378;DHT22;55322;48.146;11.516;2022-10-23T11:47:03;21.36;53.44
68378;DHT22;55322;48.146;11.516;2022-10-23T11:49:29;21.46;53.60
68378;DHT22;55322;48.146;11.516;2022-10-23T11:51:59;21.59;55.05
68378;DHT22;55322;48.146;11.516;2022-10-23T11:54:25;21.53;53.42
68378;DHT22;55322;48.146;11.516;2022-10-23T11:59:30;21.73;54.07
68378;DHT22;55322;48.146;11.516;2022-10-23T12:01:59;21.86;54.57
68378;DHT22;55322;48.146;11.516;2022-10-23T12:04:50;21.93;54.32
68378;DHT22;55322;48.146;11.516;2022-10-23T12:07:26;21.90;53.42
68378;DHT22;55322;48.146;11.516;2022-10-23T12:10:05;22.01;55.06
68378;DHT22;55322;48.146;11.516;2022-10-23T12:12:35;21.89;56.53
68378;DHT22;55322;48.146;11.516;2022-10-23T12:17:43;22.17;53.39
68378;DHT22;55322;48.146;11.516;2022-10-23T12:22:44;22.00;53.09
68378;DHT22;55322;48.146;11.516;2022-10-23T12:25:15;21.81;54.16
68378;DHT22;55322;48.146;11.516;2022-10-23T12:35:48;20.84;57.10
68378;DHT22;55322;48.146;11.516;2022-10-23T12:38:21;20.94;56.62
68378;DHT22;55322;48.146;11.516;2022-10-23T12:41:14;20.89;57.18
68378;DHT22;55322;48.146;11.516;2022-10-23T12:43:43;20.99;57.00
68378;DHT22;55322;48.146;11.516;2022-10-23T12:48:50;21.00;57.12
68378;DHT22;55322;48.146;11.516;2022-10-23T12:51:28;20.92;57.31
68378;DHT22;55322;48.146;11.516;2022-10-23T12:53:54;20.78;58.21
68378;DHT22;55322;48.146;11.516;2022-10-23T12:56:20;20.91;57.60
68378;DHT22;55322;48.146;11.516;2022-10-23T12:58:49;20.84;59.78
68378;DHT22;55322;48.146;11.516;2022-10-23T13:01:27;21.20;57.18
68378;DHT22;55322;48.146;11.516;2022-10-23T13:04:12;21.30;55.61
68378;DHT22;55322;48.146;11.516;2022-10-23T13:06:41;21.28;56.92
68378;DHT22;55322;48.146;11.516;2022-10-23T13:09:23;21.46;56.44
68378;DHT22;55322;48.146;11.516;2022-10-23T13:11:50;21.46;57.12
68378;DHT22;55322;48.146;11.516;2022-10-23T13:14:37;21.64;58.17
68378;DHT22;55322;48.146;11.516;2022-10-23T13:17:07;21.67;55.97
68378;DHT22;55322;48.146;11.516;2022-10-23T13:19:33;21.84;58.61
68378;DHT22;55322;48.146;11.516;2022-10-23T13:21:59;21.73;56.53
68378;DHT22;55322;48.146;11.516;2022-10-23T13:24:27;21.83;56.97
68378;DHT22;55322;48.146;11.516;2022-10-23T13:26:53;21.79;55.04
68378;DHT22;55322;48.146;11.516;2022-10-23T13:31:44;21.79;57.74
68378;DHT22;55322;48.146;11.516;2022-10-23T13:34:29;21.81;56.37
68378;DHT22;55322;48.146;11.516;2022-10-23T13:37:00;21.70;57.43
68378;DHT22;55322;48.146;11.516;2022-10-23T13:39:28;21.56;57.13
68378;DHT22;55322;48.146;11.516;2022-10-23T13:41:54;21.54;57.59
68378;DHT22;55322;48.146;11.516;2022-10-23T13:44:22;21.53;60.12
68378;DHT22;55322;48.146;11.516;2022-10-23T13:46:48;21.39;57.36
68378;DHT22;55322;48.146;11.516;2022-10-23T13:49:14;21.32;57.25
68378;DHT22;55322;48.146;11.516;2022-10-23T13:51:49;21.20;57.85
68378;DHT22;55322;48.146;11.516;2022-10-23T13:54:19;21.26;57.66
68378;DHT22;55322;48.146;11.516;2022-10-23T13:56:45;21.16;59.83
68378;DHT22;55322;48.146;11.516;2022-10-23T13:59:10;21.09;57.65
68378;DHT22;55322;48.146;11.516;2022-10-23T14:01:37;20.74;64.08
68378;DHT22;55322;48.146;11.516;2022-10-23T14:04:03;20.44;64.26
68378;DHT22;55322;48.146;11.516;2022-10-23T14:06:30;20.58;61.83
68378;DHT22;55322;48.146;11.516;2022-10-23T14:08:56;20.67;59.85
68378;DHT22;55322;48.146;11.516;2022-10-23T14:11:21;20.84;59.80
68378;DHT22;55322;48.146;11.516;2022-10-23T14:13:47;20.84;60.46
68378;DHT22;55322;48.146;11.516;2022-10-23T14:16:15;20.88;59.54
68378;DHT22;55322;48.146;11.516;2022-10-23T14:18:40;20.92;59.26
68378;DHT22;55322;48.146;11.516;2022-10-23T14:21:06;20.84;59.77
68378;DHT22;55322;48.146;11.516;2022-10-23T14:23:32;20.81;59.56
68378;DHT22;55322;48.146;11.516;2022-10-23T14:26:10;20.63;62.30
68378;DHT22;55322;48.146;11.516;2022-10-23T14:28:36;20.17;66.64
68378;DHT22;55322;48.146;11.516;2022-10-23T14:31:06;20.14;62.92
68378;DHT22;55322;48.146;11.516;2022-10-23T14:33:32;20.20;62.42
68378;DHT22;55322;48.146;11.516;2022-10-23T14:35:57;20.20;62.38
68378;DHT22;55322;48.146;11.516;2022-10-23T14:38:22;20.27;62.25
68378;DHT22;55322;48.146;11.516;2022-10-23T14:40:48;20.34;62.28
68378;DHT22;55322;48.146;11.516;2022-10-23T14:43:13;20.30;63.31
68378;DHT22;55322;48.146;11.516;2022-10-23T14:45:38;20.18;63.59
68378;DHT22;55322;48.146;11.516;2022-10-23T14:48:04;20.06;64.53
68378;DHT22;55322;48.146;11.516;2022-10-23T14:50:34;19.97;64.73
68378;DHT22;55322;48.146;11.516;2022-10-23T14:53:00;19.96;64.68
68378;DHT22;55322;48.146;11.516;2022-10-23T14:55:25;19.74;67.96
68378;DHT22;55322;48.146;11.516;2022-10-23T14:57:54;19.83;65.40
68378;DHT22;55322;48.146;11.516;2022-10-23T15:00:20;19.83;65.53
68378;DHT22;55322;48.146;11.516;2022-10-23T15:02:45;19.73;66.13
68378;DHT22;55322;48.146;11.516;2022-10-23T15:05:10;19.70;66.06
68378;DHT22;55322;48.146;11.516;2022-10-23T15:07:36;19.65;66.53
68378;DHT22;55322;48.146;11.516;2022-10-23T15:10:03;19.71;65.55
68378;DHT22;55322;48.146;11.516;2022-10-23T15:12:29;19.48;69.47
68378;DHT22;55322;48.146;11.516;2022-10-23T15:14:54;19.26;68.58
68378;DHT22;55322;48.146;11.516;2022-10-23T15:17:19;19.01;71.49
68378;DHT22;55322;48.146;11.516;2022-10-23T15:19:45;19.16;68.35
68378;DHT22;55322;48.146;11.516;2022-10-23T15:22:10;19.09;68.84
68378;DHT22;55322;48.146;11.516;2022-10-23T15:24:35;18.74;73.10
68378;DHT22;55322;48.146;11.516;2022-10-23T15:27:00;18.71;70.88
68378;DHT22;55322;48.146;11.516;2022-10-23T15:29:26;18.63;71.79
68378;DHT22;55322;48.146;11.516;2022-10-23T15:31:58;18.58;71.03
68378;DHT22;55322;48.146;11.516;2022-10-23T15:34:27;18.31;74.32
68378;DHT22;55322;48.146;11.516;2022-10-23T15:36:54;18.60;70.51
68378;DHT22;55322;48.146;11.516;2022-10-23T15:39:22;18.83;69.76
68378;DHT22;55322;48.146;11.516;2022-10-23T15:41:54;18.84;69.03
68378;DHT22;55322;48.146;11.516;2022-10-23T15:44:22;18.41;73.22
68378;DHT22;55322;48.146;11.516;2022-10-23T15:46:47;18.50;69.92
68378;DHT22;55322;48.146;11.516;2022-10-23T15:49:13;18.74;68.95
68378;DHT22;55322;48.146;11.516;2022-10-23T15:51:39;18.71;69.04
68378;DHT22;55322;48.146;11.516;2022-10-23T15:54:07;18.68;69.09
68378;DHT22;55322;48.146;11.516;2022-10-23T15:56:33;18.63;69.50
68378;DHT22;55322;48.146;11.516;2022-10-23T15:58:59;18.60;68.90
68378;DHT22;55322;48.146;11.516;2022-10-23T16:01:24;18.60;69.10
68378;DHT22;55322;48.146;11.516;2022-10-23T16:03:50;18.50;69.38
68378;DHT22;55322;48.146;11.516;2022-10-23T16:06:16;18.48;69.33
68378;DHT22;55322;48.146;11.516;2022-10-23T16:08:42;18.45;69.28
68378;DHT22;55322;48.146;11.516;2022-10-23T16:11:17;18.30;70.14
68378;DHT22;55322;48.146;11.516;2022-10-23T16:13:43;18.23;70.35
68378;DHT22;55322;48.146;11.516;2022-10-23T16:16:09;18.06;71.35
68378;DHT22;55322;48.146;11.516;2022-10-23T16:18:35;17.69;74.91
68378;DHT22;55322;48.146;11.516;2022-10-23T16:21:00;18.04;71.57
68378;DHT22;55322;48.146;11.516;2022-10-23T16:23:26;17.96;72.22
68378;DHT22;55322;48.146;11.516;2022-10-23T16:25:53;17.83;72.46
68378;DHT22;55322;48.146;11.516;2022-10-23T16:28:18;17.55;74.63
68378;DHT22;55322;48.146;11.516;2022-10-23T16:30:44;17.40;75.10
68378;DHT22;55322;48.146;11.516;2022-10-23T16:33:11;17.21;76.57
68378;DHT22;55322;48.146;11.516;2022-10-23T16:35:36;17.00;77.52
68378;DHT22;55322;48.146;11.516;2022-10-23T16:38:02;16.94;77.79
68378;DHT22;55322;48.146;11.516;2022-10-23T16:40:28;17.22;75.95
68378;DHT22;55322;48.146;11.516;2022-10-23T16:42:53;17.08;77.92
68378;DHT22;55322;48.146;11.516;2022-10-23T16:45:19;17.11;76.91
68378;DHT22;55322;48.146;11.516;2022-10-23T16:47:44;17.40;75.84
68378;DHT22;55322;48.146;11.516;2022-10-23T16:50:09;17.56;75.39
68378;DHT22;55322;48.146;11.516;2022-10-23T16:52:34;17.55;75.39
68378;DHT22;55322;48.146;11.516;2022-10-23T16:55:00;17.58;75.10
68378;DHT22;55322;48.146;11.516;2022-10-23T16:57:25;17.53;75.14
68378;DHT22;55322;48.146;11.516;2022-10-23T16:59:52;17.39;76.08
68378;DHT22;55322;48.146;11.516;2022-10-23T17:02:17;17.46;74.94
68378;DHT22;55322;48.146;11.516;2022-10-23T17:04:43;17.32;75.64